首页
METAR-TAF:

METAR-TAF

机场 :

Greer, 南卡罗来纳州, 美国

纬度: 34-53-02N, 经度: 082-13-15W, 海拔: 296米

当前天气观测

该预报发布于50分钟前的23:53 UTC
风速3节,风向南转南东
温度 19°C
湿度 68%
气压 1017 hPa
能見度: 16.1公里
阴天层高于4800英尺

METAR: KGSP 152353Z 15003KT 10SM OVC048 19/13 A3002 RMK AO2 SLP162 T01890128 10239 20189 56008

时间: 20:43 (00:43 UTC)

预报

该预报发布于1小时和3分钟前的23:40 UTC
预报有效从16日的 00点(UTC)到 16日的 24点(UTC)
风速4节,风向东南
能見度: 10公里
少量云层高于3000英尺
阴天层高于5000英尺
附近有阵雨
从 16日的 0700点(UTC)
风速2节,风向多变
能見度: 9.7公里
散云层高于800英尺
阴天层高于1500英尺
小阵雨, 轻雾
从 16日的 0900点(UTC)
风速2节,风向多变
能見度: 8.0公里
阴天层高于800英尺
小阵雨, 轻雾
从 16日的 1600点(UTC)
风速7节,风向西
能見度: 9.7公里
多云层高于1200英尺
轻雾
从 16日的 2000点(UTC)
风速10节,风向西北
能見度: 10公里
散云层高于20000英尺

TAF: KGSP 152340Z 1600/1624 14004KT P6SM VCSH FEW030 OVC050 FM160700 VRB02KT 6SM -SHRA BR SCT008 OVC015 FM160900 VRB02KT 5SM -SHRA BR OVC008 FM161600 26007KT 6SM BR BKN012 FM162000 32010KT P6SM SCT200

超过4000个机场的气象观测和天气预报(METAR&TAF报告)。

可查询的气象台以黄色和红色小点在地图上表示。

将鼠标移到小点上方,可查看气象台名称。

然后点击查看天气观测和预报。

如需切换地图:点击带黑十字的绿色按钮放大地图;点击带横线的绿色按钮缩小地图;或者点击绿色箭头查看邻近地区的地图。


METAR-TAF: